sensor_id;sensor_type;location;lat;lon;timestamp;P1;durP1;ratioP1;P2;durP2;ratioP2
25946;SDS011;13745;51.470;9.894;2022-12-29T00:00:58;8.88;;;1.60;;
25946;SDS011;13745;51.470;9.894;2022-12-29T00:03:45;2.95;;;1.05;;
25946;SDS011;13745;51.470;9.894;2022-12-29T00:06:30;3.60;;;0.95;;
25946;SDS011;13745;51.470;9.894;2022-12-29T00:09:15;1.30;;;1.00;;
25946;SDS011;13745;51.470;9.894;2022-12-29T00:12:01;1.80;;;1.15;;
25946;SDS011;13745;51.470;9.894;2022-12-29T00:14:47;2.03;;;1.00;;
25946;SDS011;13745;51.470;9.894;2022-12-29T00:17:51;2.80;;;0.97;;
25946;SDS011;13745;51.470;9.894;2022-12-29T00:20:36;1.27;;;1.17;;
25946;SDS011;13745;51.470;9.894;2022-12-29T00:23:40;1.60;;;1.40;;
25946;SDS011;13745;51.470;9.894;2022-12-29T00:26:42;1.57;;;1.10;;
25946;SDS011;13745;51.470;9.894;2022-12-29T00:29:45;2.72;;;1.25;;
25946;SDS011;13745;51.470;9.894;2022-12-29T00:32:48;2.05;;;1.15;;
25946;SDS011;13745;51.470;9.894;2022-12-29T00:35:53;1.50;;;1.13;;
25946;SDS011;13745;51.470;9.894;2022-12-29T00:38:46;1.63;;;1.10;;
25946;SDS011;13745;51.470;9.894;2022-12-29T00:41:52;5.15;;;1.40;;
25946;SDS011;13745;51.470;9.894;2022-12-29T00:44:54;1.80;;;1.27;;
25946;SDS011;13745;51.470;9.894;2022-12-29T00:47:39;1.55;;;1.20;;
25946;SDS011;13745;51.470;9.894;2022-12-29T00:50:25;3.58;;;1.30;;
25946;SDS011;13745;51.470;9.894;2022-12-29T00:53:10;3.08;;;1.20;;
25946;SDS011;13745;51.470;9.894;2022-12-29T00:55:55;1.80;;;1.50;;
25946;SDS011;13745;51.470;9.894;2022-12-29T00:58:40;2.45;;;1.30;;
25946;SDS011;13745;51.470;9.894;2022-12-29T01:01:25;2.53;;;1.23;;
25946;SDS011;13745;51.470;9.894;2022-12-29T01:04:10;2.20;;;1.30;;
25946;SDS011;13745;51.470;9.894;2022-12-29T01:06:56;3.33;;;1.50;;
25946;SDS011;13745;51.470;9.894;2022-12-29T01:09:43;1.85;;;1.05;;
25946;SDS011;13745;51.470;9.894;2022-12-29T01:12:42;3.35;;;1.55;;
25946;SDS011;13745;51.470;9.894;2022-12-29T01:15:29;2.15;;;1.33;;
25946;SDS011;13745;51.470;9.894;2022-12-29T01:18:13;1.92;;;1.13;;
25946;SDS011;13745;51.470;9.894;2022-12-29T01:20:59;1.67;;;1.30;;
25946;SDS011;13745;51.470;9.894;2022-12-29T01:23:44;1.63;;;1.30;;
25946;SDS011;13745;51.470;9.894;2022-12-29T01:26:31;3.88;;;1.30;;
25946;SDS011;13745;51.470;9.894;2022-12-29T01:29:16;2.30;;;1.55;;
25946;SDS011;13745;51.470;9.894;2022-12-29T01:32:03;5.20;;;2.53;;
25946;SDS011;13745;51.470;9.894;2022-12-29T01:34:49;2.03;;;1.40;;
25946;SDS011;13745;51.470;9.894;2022-12-29T01:37:34;1.63;;;1.23;;
25946;SDS011;13745;51.470;9.894;2022-12-29T01:40:20;4.20;;;1.48;;
25946;SDS011;13745;51.470;9.894;2022-12-29T01:43:08;2.38;;;1.75;;
25946;SDS011;13745;51.470;9.894;2022-12-29T01:45:56;3.30;;;1.48;;
25946;SDS011;13745;51.470;9.894;2022-12-29T01:48:41;4.25;;;1.80;;
25946;SDS011;13745;51.470;9.894;2022-12-29T01:51:27;2.30;;;1.30;;
25946;SDS011;13745;51.470;9.894;2022-12-29T01:54:16;4.10;;;1.52;;
25946;SDS011;13745;51.470;9.894;2022-12-29T01:57:04;4.03;;;1.48;;
25946;SDS011;13745;51.470;9.894;2022-12-29T01:59:55;1.77;;;1.17;;
25946;SDS011;13745;51.470;9.894;2022-12-29T02:02:45;6.05;;;1.20;;
25946;SDS011;13745;51.470;9.894;2022-12-29T02:05:33;2.25;;;1.35;;
25946;SDS011;13745;51.470;9.894;2022-12-29T02:08:23;2.45;;;1.20;;
25946;SDS011;13745;51.470;9.894;2022-12-29T02:11:12;2.05;;;1.25;;
25946;SDS011;13745;51.470;9.894;2022-12-29T02:13:57;3.15;;;1.20;;
25946;SDS011;13745;51.470;9.894;2022-12-29T02:16:49;1.65;;;1.10;;
25946;SDS011;13745;51.470;9.894;2022-12-29T02:23:18;2.30;;;1.10;;
25946;SDS011;13745;51.470;9.894;2022-12-29T02:26:28;1.87;;;1.20;;
25946;SDS011;13745;51.470;9.894;2022-12-29T02:32:51;3.92;;;1.30;;
25946;SDS011;13745;51.470;9.894;2022-12-29T02:35:45;2.30;;;1.00;;
25946;SDS011;13745;51.470;9.894;2022-12-29T02:38:42;3.05;;;1.20;;
25946;SDS011;13745;51.470;9.894;2022-12-29T02:41:37;2.25;;;1.00;;
25946;SDS011;13745;51.470;9.894;2022-12-29T02:44:34;2.88;;;0.85;;
25946;SDS011;13745;51.470;9.894;2022-12-29T02:47:28;1.67;;;0.93;;
25946;SDS011;13745;51.470;9.894;2022-12-29T02:50:23;1.95;;;1.05;;
25946;SDS011;13745;51.470;9.894;2022-12-29T02:53:14;3.13;;;1.15;;
25946;SDS011;13745;51.470;9.894;2022-12-29T02:56:22;2.30;;;0.82;;
25946;SDS011;13745;51.470;9.894;2022-12-29T02:59:06;1.27;;;0.88;;
25946;SDS011;13745;51.470;9.894;2022-12-29T03:02:02;1.23;;;0.90;;
25946;SDS011;13745;51.470;9.894;2022-12-29T03:05:07;1.42;;;1.02;;
25946;SDS011;13745;51.470;9.894;2022-12-29T03:08:06;1.15;;;0.77;;
25946;SDS011;13745;51.470;9.894;2022-12-29T03:11:03;2.13;;;0.98;;
25946;SDS011;13745;51.470;9.894;2022-12-29T03:14:12;2.17;;;0.80;;
25946;SDS011;13745;51.470;9.894;2022-12-29T03:17:24;1.15;;;0.95;;
25946;SDS011;13745;51.470;9.894;2022-12-29T03:20:14;0.65;;;0.65;;
25946;SDS011;13745;51.470;9.894;2022-12-29T03:23:07;1.23;;;0.88;;
25946;SDS011;13745;51.470;9.894;2022-12-29T03:25:53;3.58;;;0.80;;
25946;SDS011;13745;51.470;9.894;2022-12-29T03:28:43;1.10;;;0.80;;
25946;SDS011;13745;51.470;9.894;2022-12-29T03:31:35;2.47;;;0.70;;
25946;SDS011;13745;51.470;9.894;2022-12-29T03:34:23;1.15;;;0.82;;
25946;SDS011;13745;51.470;9.894;2022-12-29T03:37:11;1.42;;;1.00;;
25946;SDS011;13745;51.470;9.894;2022-12-29T03:40:01;2.47;;;1.10;;
25946;SDS011;13745;51.470;9.894;2022-12-29T03:42:47;3.05;;;0.70;;
25946;SDS011;13745;51.470;9.894;2022-12-29T03:45:33;1.35;;;0.70;;
25946;SDS011;13745;51.470;9.894;2022-12-29T03:48:18;1.00;;;0.70;;
25946;SDS011;13745;51.470;9.894;2022-12-29T03:51:05;1.40;;;0.68;;
25946;SDS011;13745;51.470;9.894;2022-12-29T03:53:51;2.35;;;0.60;;
25946;SDS011;13745;51.470;9.894;2022-12-29T03:56:38;0.85;;;0.60;;
25946;SDS011;13745;51.470;9.894;2022-12-29T03:59:23;1.80;;;0.70;;
25946;SDS011;13745;51.470;9.894;2022-12-29T04:02:09;1.02;;;0.70;;
25946;SDS011;13745;51.470;9.894;2022-12-29T04:04:55;1.15;;;0.70;;
25946;SDS011;13745;51.470;9.894;2022-12-29T04:07:40;0.75;;;0.50;;
25946;SDS011;13745;51.470;9.894;2022-12-29T04:10:25;1.23;;;0.60;;
25946;SDS011;13745;51.470;9.894;2022-12-29T04:13:16;1.33;;;0.50;;
25946;SDS011;13745;51.470;9.894;2022-12-29T04:16:01;1.02;;;0.60;;
25946;SDS011;13745;51.470;9.894;2022-12-29T04:18:47;0.98;;;0.60;;
25946;SDS011;13745;51.470;9.894;2022-12-29T04:21:32;2.33;;;0.82;;
25946;SDS011;13745;51.470;9.894;2022-12-29T04:24:17;1.80;;;0.50;;
25946;SDS011;13745;51.470;9.894;2022-12-29T04:27:02;0.77;;;0.60;;
25946;SDS011;13745;51.470;9.894;2022-12-29T04:30:12;1.35;;;0.65;;
25946;SDS011;13745;51.470;9.894;2022-12-29T04:33:05;1.02;;;0.60;;
25946;SDS011;13745;51.470;9.894;2022-12-29T04:35:51;0.70;;;0.60;;
25946;SDS011;13745;51.470;9.894;2022-12-29T04:38:38;1.95;;;0.88;;
25946;SDS011;13745;51.470;9.894;2022-12-29T04:41:23;1.05;;;0.68;;
25946;SDS011;13745;51.470;9.894;2022-12-29T04:44:09;1.05;;;0.43;;
25946;SDS011;13745;51.470;9.894;2022-12-29T04:46:55;1.00;;;0.68;;
25946;SDS011;13745;51.470;9.894;2022-12-29T04:49:59;2.47;;;0.60;;
25946;SDS011;13745;51.470;9.894;2022-12-29T04:53:10;0.52;;;0.50;;
25946;SDS011;13745;51.470;9.894;2022-12-29T04:55:55;0.47;;;0.40;;
25946;SDS011;13745;51.470;9.894;2022-12-29T04:58:40;0.63;;;0.40;;
25946;SDS011;13745;51.470;9.894;2022-12-29T05:01:25;1.05;;;0.60;;
25946;SDS011;13745;51.470;9.894;2022-12-29T05:04:12;1.40;;;0.50;;
25946;SDS011;13745;51.470;9.894;2022-12-29T05:06:59;3.35;;;0.30;;
25946;SDS011;13745;51.470;9.894;2022-12-29T05:09:45;0.70;;;0.60;;
25946;SDS011;13745;51.470;9.894;2022-12-29T05:12:30;0.73;;;0.40;;
25946;SDS011;13745;51.470;9.894;2022-12-29T05:15:17;0.82;;;0.43;;
25946;SDS011;13745;51.470;9.894;2022-12-29T05:18:02;0.50;;;0.40;;
25946;SDS011;13745;51.470;9.894;2022-12-29T05:20:49;1.88;;;0.43;;
25946;SDS011;13745;51.470;9.894;2022-12-29T05:23:36;2.20;;;0.60;;
25946;SDS011;13745;51.470;9.894;2022-12-29T05:26:23;0.52;;;0.43;;
25946;SDS011;13745;51.470;9.894;2022-12-29T05:29:27;0.93;;;0.45;;
25946;SDS011;13745;51.470;9.894;2022-12-29T05:32:14;0.47;;;0.20;;
25946;SDS011;13745;51.470;9.894;2022-12-29T05:35:00;0.55;;;0.40;;
25946;SDS011;13745;51.470;9.894;2022-12-29T05:37:47;1.67;;;0.40;;
25946;SDS011;13745;51.470;9.894;2022-12-29T05:40:33;0.40;;;0.40;;
25946;SDS011;13745;51.470;9.894;2022-12-29T05:43:22;2.00;;;0.47;;
25946;SDS011;13745;51.470;9.894;2022-12-29T05:46:26;1.42;;;0.47;;
25946;SDS011;13745;51.470;9.894;2022-12-29T05:49:32;0.38;;;0.28;;
25946;SDS011;13745;51.470;9.894;2022-12-29T05:52:48;0.40;;;0.40;;
25946;SDS011;13745;51.470;9.894;2022-12-29T05:55:34;1.00;;;0.40;;
25946;SDS011;13745;51.470;9.894;2022-12-29T05:58:19;0.73;;;0.30;;
25946;SDS011;13745;51.470;9.894;2022-12-29T06:01:05;2.17;;;0.45;;
25946;SDS011;13745;51.470;9.894;2022-12-29T06:03:50;0.45;;;0.38;;
25946;SDS011;13745;51.470;9.894;2022-12-29T06:06:37;0.55;;;0.38;;
25946;SDS011;13745;51.470;9.894;2022-12-29T06:09:25;0.90;;;0.40;;
25946;SDS011;13745;51.470;9.894;2022-12-29T06:12:11;1.08;;;0.50;;
25946;SDS011;13745;51.470;9.894;2022-12-29T06:14:58;0.65;;;0.43;;
25946;SDS011;13745;51.470;9.894;2022-12-29T06:17:44;0.40;;;0.30;;
25946;SDS011;13745;51.470;9.894;2022-12-29T06:20:29;0.95;;;0.25;;
25946;SDS011;13745;51.470;9.894;2022-12-29T06:23:15;0.40;;;0.28;;
25946;SDS011;13745;51.470;9.894;2022-12-29T06:26:01;4.05;;;0.95;;
25946;SDS011;13745;51.470;9.894;2022-12-29T06:28:46;0.35;;;0.20;;
25946;SDS011;13745;51.470;9.894;2022-12-29T06:31:31;0.30;;;0.25;;
25946;SDS011;13745;51.470;9.894;2022-12-29T06:34:16;0.95;;;0.25;;
25946;SDS011;13745;51.470;9.894;2022-12-29T06:37:01;0.50;;;0.30;;
25946;SDS011;13745;51.470;9.894;2022-12-29T06:39:47;1.27;;;0.57;;
25946;SDS011;13745;51.470;9.894;2022-12-29T06:42:34;2.72;;;0.40;;
25946;SDS011;13745;51.470;9.894;2022-12-29T06:45:30;0.43;;;0.40;;
25946;SDS011;13745;51.470;9.894;2022-12-29T06:48:15;0.43;;;0.38;;
25946;SDS011;13745;51.470;9.894;2022-12-29T06:51:00;1.05;;;0.40;;
25946;SDS011;13745;51.470;9.894;2022-12-29T06:53:45;1.65;;;0.30;;
25946;SDS011;13745;51.470;9.894;2022-12-29T06:56:30;0.82;;;0.40;;
25946;SDS011;13745;51.470;9.894;2022-12-29T06:59:16;0.50;;;0.40;;
25946;SDS011;13745;51.470;9.894;2022-12-29T07:02:02;1.90;;;0.60;;
25946;SDS011;13745;51.470;9.894;2022-12-29T07:04:47;0.68;;;0.55;;
25946;SDS011;13745;51.470;9.894;2022-12-29T07:07:32;1.48;;;0.60;;
25946;SDS011;13745;51.470;9.894;2022-12-29T07:10:17;1.27;;;0.30;;
25946;SDS011;13745;51.470;9.894;2022-12-29T07:13:02;1.05;;;0.68;;
25946;SDS011;13745;51.470;9.894;2022-12-29T07:15:48;1.95;;;0.40;;
25946;SDS011;13745;51.470;9.894;2022-12-29T07:18:33;1.90;;;0.60;;
25946;SDS011;13745;51.470;9.894;2022-12-29T07:21:18;2.30;;;0.57;;
25946;SDS011;13745;51.470;9.894;2022-12-29T07:24:04;0.98;;;0.70;;
25946;SDS011;13745;51.470;9.894;2022-12-29T07:26:50;3.30;;;0.60;;
25946;SDS011;13745;51.470;9.894;2022-12-29T07:29:36;3.17;;;0.50;;
25946;SDS011;13745;51.470;9.894;2022-12-29T07:32:22;1.13;;;0.82;;
25946;SDS011;13745;51.470;9.894;2022-12-29T07:35:08;1.17;;;0.75;;
25946;SDS011;13745;51.470;9.894;2022-12-29T07:37:53;2.47;;;0.70;;
25946;SDS011;13745;51.470;9.894;2022-12-29T07:40:38;1.67;;;0.60;;
25946;SDS011;13745;51.470;9.894;2022-12-29T07:43:23;0.70;;;0.50;;
25946;SDS011;13745;51.470;9.894;2022-12-29T07:46:27;1.27;;;0.80;;
25946;SDS011;13745;51.470;9.894;2022-12-29T07:49:13;2.67;;;0.80;;
25946;SDS011;13745;51.470;9.894;2022-12-29T07:51:59;1.35;;;0.60;;
25946;SDS011;13745;51.470;9.894;2022-12-29T07:54:44;3.60;;;0.75;;
25946;SDS011;13745;51.470;9.894;2022-12-29T07:57:29;1.80;;;0.60;;
25946;SDS011;13745;51.470;9.894;2022-12-29T08:00:14;1.90;;;0.70;;
25946;SDS011;13745;51.470;9.894;2022-12-29T08:03:00;0.82;;;0.47;;
25946;SDS011;13745;51.470;9.894;2022-12-29T08:05:47;2.17;;;0.75;;
25946;SDS011;13745;51.470;9.894;2022-12-29T08:08:32;3.33;;;0.73;;
25946;SDS011;13745;51.470;9.894;2022-12-29T08:11:17;1.27;;;0.63;;
25946;SDS011;13745;51.470;9.894;2022-12-29T08:14:02;1.02;;;0.63;;
25946;SDS011;13745;51.470;9.894;2022-12-29T08:16:47;1.33;;;0.60;;
25946;SDS011;13745;51.470;9.894;2022-12-29T08:19:32;2.08;;;0.50;;
25946;SDS011;13745;51.470;9.894;2022-12-29T08:22:18;0.77;;;0.45;;
25946;SDS011;13745;51.470;9.894;2022-12-29T08:25:04;0.95;;;0.60;;
25946;SDS011;13745;51.470;9.894;2022-12-29T08:27:49;1.48;;;0.65;;
25946;SDS011;13745;51.470;9.894;2022-12-29T08:30:35;1.35;;;0.70;;
25946;SDS011;13745;51.470;9.894;2022-12-29T08:33:20;1.35;;;0.50;;
25946;SDS011;13745;51.470;9.894;2022-12-29T08:36:06;2.05;;;0.68;;
25946;SDS011;13745;51.470;9.894;2022-12-29T08:38:53;3.25;;;0.70;;
25946;SDS011;13745;51.470;9.894;2022-12-29T08:41:38;0.85;;;0.50;;
25946;SDS011;13745;51.470;9.894;2022-12-29T08:44:23;1.45;;;0.50;;
25946;SDS011;13745;51.470;9.894;2022-12-29T08:47:09;1.85;;;0.60;;
25946;SDS011;13745;51.470;9.894;2022-12-29T08:49:55;3.60;;;0.60;;
25946;SDS011;13745;51.470;9.894;2022-12-29T08:52:40;1.33;;;0.52;;
25946;SDS011;13745;51.470;9.894;2022-12-29T08:55:26;1.88;;;0.52;;
25946;SDS011;13745;51.470;9.894;2022-12-29T08:58:11;1.23;;;0.50;;
25946;SDS011;13745;51.470;9.894;2022-12-29T09:00:59;0.60;;;0.60;;
25946;SDS011;13745;51.470;9.894;2022-12-29T09:03:44;1.48;;;0.73;;
25946;SDS011;13745;51.470;9.894;2022-12-29T09:06:30;2.17;;;0.82;;
25946;SDS011;13745;51.470;9.894;2022-12-29T09:09:15;2.90;;;0.65;;
25946;SDS011;13745;51.470;9.894;2022-12-29T09:12:02;1.05;;;0.50;;
25946;SDS011;13745;51.470;9.894;2022-12-29T09:14:47;1.85;;;0.52;;
25946;SDS011;13745;51.470;9.894;2022-12-29T09:17:33;0.73;;;0.28;;
25946;SDS011;13745;51.470;9.894;2022-12-29T09:20:30;1.92;;;0.73;;
25946;SDS011;13745;51.470;9.894;2022-12-29T09:23:15;0.60;;;0.35;;
25946;SDS011;13745;51.470;9.894;2022-12-29T09:26:00;0.45;;;0.30;;
25946;SDS011;13745;51.470;9.894;2022-12-29T09:28:47;0.50;;;0.30;;
25946;SDS011;13745;51.470;9.894;2022-12-29T09:31:32;0.30;;;0.28;;
25946;SDS011;13745;51.470;9.894;2022-12-29T09:34:17;0.17;;;0.17;;
25946;SDS011;13745;51.470;9.894;2022-12-29T09:37:02;0.55;;;0.30;;
25946;SDS011;13745;51.470;9.894;2022-12-29T09:39:48;1.20;;;0.35;;
25946;SDS011;13745;51.470;9.894;2022-12-29T09:42:35;0.22;;;0.10;;
25946;SDS011;13745;51.470;9.894;2022-12-29T09:45:27;1.20;;;0.70;;
25946;SDS011;13745;51.470;9.894;2022-12-29T09:48:18;1.48;;;0.43;;
25946;SDS011;13745;51.470;9.894;2022-12-29T09:51:08;0.20;;;0.10;;
25946;SDS011;13745;51.470;9.894;2022-12-29T09:53:57;1.02;;;0.10;;
25946;SDS011;13745;51.470;9.894;2022-12-29T09:56:45;1.00;;;0.30;;
25946;SDS011;13745;51.470;9.894;2022-12-29T09:59:35;1.20;;;0.35;;
25946;SDS011;13745;51.470;9.894;2022-12-29T10:02:31;0.83;;;0.50;;
25946;SDS011;13745;51.470;9.894;2022-12-29T10:05:26;0.43;;;0.40;;
25946;SDS011;13745;51.470;9.894;2022-12-29T10:08:19;0.70;;;0.50;;
25946;SDS011;13745;51.470;9.894;2022-12-29T10:11:17;0.63;;;0.30;;
25946;SDS011;13745;51.470;9.894;2022-12-29T10:14:17;0.50;;;0.40;;
25946;SDS011;13745;51.470;9.894;2022-12-29T10:17:18;0.30;;;0.20;;
25946;SDS011;13745;51.470;9.894;2022-12-29T10:20:17;1.90;;;0.38;;
25946;SDS011;13745;51.470;9.894;2022-12-29T10:23:14;1.35;;;0.38;;
25946;SDS011;13745;51.470;9.894;2022-12-29T10:26:12;0.20;;;0.20;;
25946;SDS011;13745;51.470;9.894;2022-12-29T10:29:02;1.75;;;0.63;;
25946;SDS011;13745;51.470;9.894;2022-12-29T10:31:50;0.77;;;0.35;;
25946;SDS011;13745;51.470;9.894;2022-12-29T10:34:41;1.27;;;0.35;;
25946;SDS011;13745;51.470;9.894;2022-12-29T10:37:32;1.10;;;0.40;;
25946;SDS011;13745;51.470;9.894;2022-12-29T10:40:25;1.13;;;0.30;;
25946;SDS011;13745;51.470;9.894;2022-12-29T10:43:16;1.00;;;0.22;;
25946;SDS011;13745;51.470;9.894;2022-12-29T10:46:09;1.42;;;0.38;;
25946;SDS011;13745;51.470;9.894;2022-12-29T10:48:58;0.55;;;0.40;;
25946;SDS011;13745;51.470;9.894;2022-12-29T10:51:46;1.15;;;0.20;;
25946;SDS011;13745;51.470;9.894;2022-12-29T10:54:38;0.30;;;0.20;;
25946;SDS011;13745;51.470;9.894;2022-12-29T10:57:30;4.53;;;0.40;;
25946;SDS011;13745;51.470;9.894;2022-12-29T11:00:19;1.00;;;0.40;;
25946;SDS011;13745;51.470;9.894;2022-12-29T11:03:19;1.98;;;0.70;;
25946;SDS011;13745;51.470;9.894;2022-12-29T11:06:24;0.65;;;0.30;;
25946;SDS011;13745;51.470;9.894;2022-12-29T11:09:13;0.93;;;0.30;;
25946;SDS011;13745;51.470;9.894;2022-12-29T11:12:03;1.65;;;0.50;;
25946;SDS011;13745;51.470;9.894;2022-12-29T11:15:13;2.50;;;0.77;;
25946;SDS011;13745;51.470;9.894;2022-12-29T11:17:59;0.77;;;0.40;;
25946;SDS011;13745;51.470;9.894;2022-12-29T11:20:45;2.83;;;0.45;;
25946;SDS011;13745;51.470;9.894;2022-12-29T11:23:30;0.77;;;0.57;;
25946;SDS011;13745;51.470;9.894;2022-12-29T11:26:18;1.77;;;0.60;;
25946;SDS011;13745;51.470;9.894;2022-12-29T11:29:16;1.55;;;0.40;;
25946;SDS011;13745;51.470;9.894;2022-12-29T11:32:10;0.73;;;0.40;;
25946;SDS011;13745;51.470;9.894;2022-12-29T11:34:56;1.50;;;0.50;;
25946;SDS011;13745;51.470;9.894;2022-12-29T11:37:42;1.27;;;0.40;;
25946;SDS011;13745;51.470;9.894;2022-12-29T11:40:27;1.33;;;0.50;;
25946;SDS011;13745;51.470;9.894;2022-12-29T11:43:16;0.88;;;0.73;;
25946;SDS011;13745;51.470;9.894;2022-12-29T11:46:08;1.85;;;0.80;;
25946;SDS011;13745;51.470;9.894;2022-12-29T11:49:01;0.70;;;0.30;;
25946;SDS011;13745;51.470;9.894;2022-12-29T11:51:48;1.88;;;0.32;;
25946;SDS011;13745;51.470;9.894;2022-12-29T11:54:36;0.73;;;0.40;;
25946;SDS011;13745;51.470;9.894;2022-12-29T11:57:22;1.83;;;0.40;;
25946;SDS011;13745;51.470;9.894;2022-12-29T12:00:14;1.13;;;0.40;;
25946;SDS011;13745;51.470;9.894;2022-12-29T12:03:04;3.05;;;0.43;;
25946;SDS011;13745;51.470;9.894;2022-12-29T12:06:00;0.88;;;0.30;;
25946;SDS011;13745;51.470;9.894;2022-12-29T12:08:47;1.88;;;0.63;;
25946;SDS011;13745;51.470;9.894;2022-12-29T12:11:36;1.58;;;0.30;;
25946;SDS011;13745;51.470;9.894;2022-12-29T12:14:28;2.47;;;0.52;;
25946;SDS011;13745;51.470;9.894;2022-12-29T12:17:33;2.47;;;0.98;;
25946;SDS011;13745;51.470;9.894;2022-12-29T12:20:28;2.50;;;0.50;;
25946;SDS011;13745;51.470;9.894;2022-12-29T12:23:25;1.77;;;0.40;;
25946;SDS011;13745;51.470;9.894;2022-12-29T12:26:18;2.92;;;0.40;;
25946;SDS011;13745;51.470;9.894;2022-12-29T12:29:08;1.65;;;0.20;;
25946;SDS011;13745;51.470;9.894;2022-12-29T12:31:57;2.63;;;0.35;;
25946;SDS011;13745;51.470;9.894;2022-12-29T12:34:47;0.68;;;0.30;;
25946;SDS011;13745;51.470;9.894;2022-12-29T12:37:40;1.33;;;0.35;;
25946;SDS011;13745;51.470;9.894;2022-12-29T12:40:34;1.52;;;0.50;;
25946;SDS011;13745;51.470;9.894;2022-12-29T12:43:36;3.30;;;0.50;;
25946;SDS011;13745;51.470;9.894;2022-12-29T12:46:32;2.20;;;0.32;;
25946;SDS011;13745;51.470;9.894;2022-12-29T12:49:44;1.42;;;0.40;;
25946;SDS011;13745;51.470;9.894;2022-12-29T12:53:00;1.98;;;0.40;;
25946;SDS011;13745;51.470;9.894;2022-12-29T12:56:03;2.85;;;0.22;;
25946;SDS011;13745;51.470;9.894;2022-12-29T12:59:06;2.00;;;0.40;;
25946;SDS011;13745;51.470;9.894;2022-12-29T13:02:01;2.47;;;0.50;;
25946;SDS011;13745;51.470;9.894;2022-12-29T13:05:04;1.65;;;0.40;;
25946;SDS011;13745;51.470;9.894;2022-12-29T13:11:16;1.15;;;0.35;;
25946;SDS011;13745;51.470;9.894;2022-12-29T13:14:11;0.98;;;0.30;;
25946;SDS011;13745;51.470;9.894;2022-12-29T13:17:06;2.40;;;0.45;;
25946;SDS011;13745;51.470;9.894;2022-12-29T13:19:59;1.90;;;0.50;;
25946;SDS011;13745;51.470;9.894;2022-12-29T13:22:55;2.90;;;0.43;;
25946;SDS011;13745;51.470;9.894;2022-12-29T13:25:48;2.53;;;0.40;;
25946;SDS011;13745;51.470;9.894;2022-12-29T13:28:37;2.78;;;0.65;;
25946;SDS011;13745;51.470;9.894;2022-12-29T13:31:42;2.03;;;0.30;;
25946;SDS011;13745;51.470;9.894;2022-12-29T13:34:36;1.48;;;0.35;;
25946;SDS011;13745;51.470;9.894;2022-12-29T13:37:33;2.38;;;0.30;;
25946;SDS011;13745;51.470;9.894;2022-12-29T13:40:25;0.60;;;0.20;;
25946;SDS011;13745;51.470;9.894;2022-12-29T13:43:14;1.48;;;0.38;;
25946;SDS011;13745;51.470;9.894;2022-12-29T13:46:02;2.15;;;0.75;;
25946;SDS011;13745;51.470;9.894;2022-12-29T13:48:53;1.65;;;0.35;;
25946;SDS011;13745;51.470;9.894;2022-12-29T13:51:41;1.27;;;0.35;;
25946;SDS011;13745;51.470;9.894;2022-12-29T13:54:35;2.75;;;0.30;;
25946;SDS011;13745;51.470;9.894;2022-12-29T13:57:31;2.00;;;0.43;;
25946;SDS011;13745;51.470;9.894;2022-12-29T14:00:26;1.50;;;0.45;;
25946;SDS011;13745;51.470;9.894;2022-12-29T14:03:20;2.33;;;0.40;;
25946;SDS011;13745;51.470;9.894;2022-12-29T14:06:20;2.22;;;0.43;;
25946;SDS011;13745;51.470;9.894;2022-12-29T14:12:20;0.95;;;0.30;;
25946;SDS011;13745;51.470;9.894;2022-12-29T14:15:19;1.40;;;0.50;;
25946;SDS011;13745;51.470;9.894;2022-12-29T14:18:13;2.10;;;0.55;;
25946;SDS011;13745;51.470;9.894;2022-12-29T14:21:03;2.42;;;0.47;;
25946;SDS011;13745;51.470;9.894;2022-12-29T14:23:53;0.90;;;0.30;;
25946;SDS011;13745;51.470;9.894;2022-12-29T14:26:39;0.95;;;0.40;;
25946;SDS011;13745;51.470;9.894;2022-12-29T14:38:25;1.27;;;0.40;;
25946;SDS011;13745;51.470;9.894;2022-12-29T14:41:23;5.47;;;0.50;;
25946;SDS011;13745;51.470;9.894;2022-12-29T14:44:16;3.80;;;0.93;;
25946;SDS011;13745;51.470;9.894;2022-12-29T14:47:04;1.67;;;0.50;;
25946;SDS011;13745;51.470;9.894;2022-12-29T14:49:51;2.72;;;0.40;;
25946;SDS011;13745;51.470;9.894;2022-12-29T14:52:42;1.70;;;0.20;;
25946;SDS011;13745;51.470;9.894;2022-12-29T14:55:36;3.75;;;0.50;;
25946;SDS011;13745;51.470;9.894;2022-12-29T14:58:25;3.03;;;0.70;;
25946;SDS011;13745;51.470;9.894;2022-12-29T15:01:18;7.00;;;1.70;;
25946;SDS011;13745;51.470;9.894;2022-12-29T15:04:14;2.05;;;0.60;;
25946;SDS011;13745;51.470;9.894;2022-12-29T15:07:02;7.47;;;1.98;;
25946;SDS011;13745;51.470;9.894;2022-12-29T15:09:56;2.45;;;0.90;;
25946;SDS011;13745;51.470;9.894;2022-12-29T15:12:47;2.47;;;0.80;;
25946;SDS011;13745;51.470;9.894;2022-12-29T15:15:36;1.98;;;0.35;;
25946;SDS011;13745;51.470;9.894;2022-12-29T15:18:24;2.45;;;0.43;;
25946;SDS011;13745;51.470;9.894;2022-12-29T15:21:11;2.08;;;0.45;;
25946;SDS011;13745;51.470;9.894;2022-12-29T15:23:59;4.70;;;0.65;;
25946;SDS011;13745;51.470;9.894;2022-12-29T15:26:46;2.83;;;0.90;;
25946;SDS011;13745;51.470;9.894;2022-12-29T15:29:36;1.60;;;0.90;;
25946;SDS011;13745;51.470;9.894;2022-12-29T15:32:23;3.85;;;1.52;;
25946;SDS011;13745;51.470;9.894;2022-12-29T15:35:21;2.60;;;1.02;;
25946;SDS011;13745;51.470;9.894;2022-12-29T15:38:12;2.60;;;0.80;;
25946;SDS011;13745;51.470;9.894;2022-12-29T15:41:01;5.10;;;0.80;;
25946;SDS011;13745;51.470;9.894;2022-12-29T15:43:52;5.53;;;0.77;;
25946;SDS011;13745;51.470;9.894;2022-12-29T15:46:45;3.15;;;1.00;;
25946;SDS011;13745;51.470;9.894;2022-12-29T15:49:30;3.25;;;0.65;;
25946;SDS011;13745;51.470;9.894;2022-12-29T15:52:17;4.60;;;0.70;;
25946;SDS011;13745;51.470;9.894;2022-12-29T15:55:04;3.20;;;0.70;;
25946;SDS011;13745;51.470;9.894;2022-12-29T15:57:49;5.57;;;1.08;;
25946;SDS011;13745;51.470;9.894;2022-12-29T16:00:45;3.50;;;1.77;;
25946;SDS011;13745;51.470;9.894;2022-12-29T16:03:33;2.58;;;0.70;;
25946;SDS011;13745;51.470;9.894;2022-12-29T16:06:28;3.47;;;0.88;;
25946;SDS011;13745;51.470;9.894;2022-12-29T16:09:16;3.95;;;0.52;;
25946;SDS011;13745;51.470;9.894;2022-12-29T16:12:04;6.50;;;1.08;;
25946;SDS011;13745;51.470;9.894;2022-12-29T16:14:53;5.88;;;1.10;;
25946;SDS011;13745;51.470;9.894;2022-12-29T16:17:45;4.18;;;0.80;;
25946;SDS011;13745;51.470;9.894;2022-12-29T16:20:34;2.17;;;0.68;;
25946;SDS011;13745;51.470;9.894;2022-12-29T16:23:25;3.20;;;0.50;;
25946;SDS011;13745;51.470;9.894;2022-12-29T16:26:14;5.07;;;0.75;;
25946;SDS011;13745;51.470;9.894;2022-12-29T16:29:01;8.10;;;0.65;;
25946;SDS011;13745;51.470;9.894;2022-12-29T16:31:52;1.70;;;0.40;;
25946;SDS011;13745;51.470;9.894;2022-12-29T16:34:45;4.57;;;0.67;;
25946;SDS011;13745;51.470;9.894;2022-12-29T16:37:30;4.22;;;0.70;;
25946;SDS011;13745;51.470;9.894;2022-12-29T16:40:23;2.72;;;0.60;;
25946;SDS011;13745;51.470;9.894;2022-12-29T16:43:18;3.55;;;0.68;;
25946;SDS011;13745;51.470;9.894;2022-12-29T16:46:16;3.22;;;0.60;;
25946;SDS011;13745;51.470;9.894;2022-12-29T16:49:14;3.58;;;0.52;;
25946;SDS011;13745;51.470;9.894;2022-12-29T16:52:11;9.23;;;0.82;;
25946;SDS011;13745;51.470;9.894;2022-12-29T16:54:58;5.20;;;0.52;;
25946;SDS011;13745;51.470;9.894;2022-12-29T16:57:44;2.63;;;0.55;;
25946;SDS011;13745;51.470;9.894;2022-12-29T17:00:34;3.03;;;0.88;;
25946;SDS011;13745;51.470;9.894;2022-12-29T17:03:20;4.97;;;0.90;;
25946;SDS011;13745;51.470;9.894;2022-12-29T17:06:08;5.50;;;0.73;;
25946;SDS011;13745;51.470;9.894;2022-12-29T17:09:00;2.03;;;0.37;;
25946;SDS011;13745;51.470;9.894;2022-12-29T17:11:46;3.33;;;0.90;;
25946;SDS011;13745;51.470;9.894;2022-12-29T17:14:43;2.15;;;0.40;;
25946;SDS011;13745;51.470;9.894;2022-12-29T17:17:30;4.47;;;1.00;;
25946;SDS011;13745;51.470;9.894;2022-12-29T17:20:18;2.10;;;0.65;;
25946;SDS011;13745;51.470;9.894;2022-12-29T17:23:08;5.50;;;0.73;;
25946;SDS011;13745;51.470;9.894;2022-12-29T17:26:00;4.63;;;1.33;;
25946;SDS011;13745;51.470;9.894;2022-12-29T17:28:46;2.67;;;0.73;;